sensor_id;sensor_type;location;lat;lon;timestamp;P1;durP1;ratioP1;P2;durP2;ratioP2
56712;SDS011;42589;45.536;9.032;2023-02-22T00:01:38;68.72;;;46.22;;
56712;SDS011;42589;45.536;9.032;2023-02-22T00:04:49;71.82;;;46.83;;
56712;SDS011;42589;45.536;9.032;2023-02-22T00:07:53;66.18;;;45.88;;
56712;SDS011;42589;45.536;9.032;2023-02-22T00:14:07;68.47;;;46.67;;
56712;SDS011;42589;45.536;9.032;2023-02-22T00:17:08;69.25;;;45.47;;
56712;SDS011;42589;45.536;9.032;2023-02-22T00:20:13;59.20;;;41.27;;
56712;SDS011;42589;45.536;9.032;2023-02-22T00:23:18;59.20;;;40.05;;
56712;SDS011;42589;45.536;9.032;2023-02-22T00:26:22;59.08;;;39.97;;
56712;SDS011;42589;45.536;9.032;2023-02-22T00:29:23;52.75;;;35.78;;
56712;SDS011;42589;45.536;9.032;2023-02-22T00:32:24;52.92;;;36.40;;
56712;SDS011;42589;45.536;9.032;2023-02-22T00:35:26;48.97;;;35.97;;
56712;SDS011;42589;45.536;9.032;2023-02-22T00:38:29;49.97;;;36.43;;
56712;SDS011;42589;45.536;9.032;2023-02-22T00:41:29;53.15;;;36.60;;
56712;SDS011;42589;45.536;9.032;2023-02-22T00:44:31;51.45;;;35.63;;
56712;SDS011;42589;45.536;9.032;2023-02-22T00:47:32;43.30;;;32.25;;
56712;SDS011;42589;45.536;9.032;2023-02-22T00:50:33;45.42;;;32.60;;
56712;SDS011;42589;45.536;9.032;2023-02-22T00:53:35;42.83;;;31.88;;
56712;SDS011;42589;45.536;9.032;2023-02-22T00:56:36;41.72;;;31.70;;
56712;SDS011;42589;45.536;9.032;2023-02-22T00:59:38;40.88;;;30.83;;
56712;SDS011;42589;45.536;9.032;2023-02-22T01:02:39;42.60;;;29.90;;
56712;SDS011;42589;45.536;9.032;2023-02-22T01:05:41;42.58;;;30.17;;
56712;SDS011;42589;45.536;9.032;2023-02-22T01:08:43;42.72;;;30.83;;
56712;SDS011;42589;45.536;9.032;2023-02-22T01:11:45;46.58;;;32.47;;
56712;SDS011;42589;45.536;9.032;2023-02-22T01:14:46;42.63;;;30.63;;
56712;SDS011;42589;45.536;9.032;2023-02-22T01:17:47;46.17;;;32.53;;
56712;SDS011;42589;45.536;9.032;2023-02-22T01:20:49;46.22;;;32.88;;
56712;SDS011;42589;45.536;9.032;2023-02-22T01:23:50;47.47;;;32.22;;
56712;SDS011;42589;45.536;9.032;2023-02-22T01:26:51;46.45;;;32.40;;
56712;SDS011;42589;45.536;9.032;2023-02-22T01:29:52;43.63;;;31.30;;
56712;SDS011;42589;45.536;9.032;2023-02-22T01:32:57;45.20;;;32.75;;
56712;SDS011;42589;45.536;9.032;2023-02-22T01:35:58;47.13;;;33.92;;
56712;SDS011;42589;45.536;9.032;2023-02-22T01:38:59;45.08;;;32.20;;
56712;SDS011;42589;45.536;9.032;2023-02-22T01:42:00;48.60;;;32.63;;
56712;SDS011;42589;45.536;9.032;2023-02-22T01:51:40;45.22;;;31.80;;
56712;SDS011;42589;45.536;9.032;2023-02-22T01:54:55;44.00;;;31.35;;
56712;SDS011;42589;45.536;9.032;2023-02-22T01:57:57;43.83;;;31.05;;
56712;SDS011;42589;45.536;9.032;2023-02-22T02:00:58;45.33;;;31.88;;
56712;SDS011;42589;45.536;9.032;2023-02-22T02:04:01;44.03;;;30.88;;
56712;SDS011;42589;45.536;9.032;2023-02-22T02:07:06;42.95;;;30.48;;
56712;SDS011;42589;45.536;9.032;2023-02-22T02:10:12;43.10;;;30.27;;
56712;SDS011;42589;45.536;9.032;2023-02-22T02:13:14;48.40;;;33.83;;
56712;SDS011;42589;45.536;9.032;2023-02-22T02:16:16;54.00;;;35.72;;
56712;SDS011;42589;45.536;9.032;2023-02-22T02:19:21;47.58;;;35.00;;
56712;SDS011;42589;45.536;9.032;2023-02-22T02:22:51;51.63;;;35.78;;
56712;SDS011;42589;45.536;9.032;2023-02-22T02:26:01;48.42;;;34.45;;
56712;SDS011;42589;45.536;9.032;2023-02-22T02:39:26;51.92;;;36.20;;
56712;SDS011;42589;45.536;9.032;2023-02-22T02:42:44;47.10;;;35.45;;
56712;SDS011;42589;45.536;9.032;2023-02-22T02:45:57;48.90;;;34.33;;
56712;SDS011;42589;45.536;9.032;2023-02-22T02:49:08;48.75;;;34.80;;
56712;SDS011;42589;45.536;9.032;2023-02-22T02:52:12;50.58;;;35.80;;
56712;SDS011;42589;45.536;9.032;2023-02-22T02:55:17;55.65;;;35.97;;
56712;SDS011;42589;45.536;9.032;2023-02-22T02:58:19;50.08;;;36.58;;
56712;SDS011;42589;45.536;9.032;2023-02-22T03:08:13;52.75;;;35.72;;
56712;SDS011;42589;45.536;9.032;2023-02-22T03:11:38;51.72;;;36.28;;
56712;SDS011;42589;45.536;9.032;2023-02-22T03:28:10;51.38;;;36.22;;
56712;SDS011;42589;45.536;9.032;2023-02-22T03:31:17;50.92;;;36.35;;
56712;SDS011;42589;45.536;9.032;2023-02-22T03:34:25;52.65;;;36.67;;
56712;SDS011;42589;45.536;9.032;2023-02-22T03:37:30;55.53;;;37.58;;
56712;SDS011;42589;45.536;9.032;2023-02-22T03:40:39;49.55;;;35.63;;
56712;SDS011;42589;45.536;9.032;2023-02-22T03:43:47;56.95;;;38.92;;
56712;SDS011;42589;45.536;9.032;2023-02-22T03:46:56;54.58;;;38.15;;
56712;SDS011;42589;45.536;9.032;2023-02-22T03:50:05;58.97;;;40.45;;
56712;SDS011;42589;45.536;9.032;2023-02-22T03:53:11;59.83;;;42.03;;
56712;SDS011;42589;45.536;9.032;2023-02-22T03:56:14;62.33;;;42.08;;
56712;SDS011;42589;45.536;9.032;2023-02-22T03:59:21;75.47;;;48.33;;
56712;SDS011;42589;45.536;9.032;2023-02-22T04:02:26;79.45;;;52.42;;
56712;SDS011;42589;45.536;9.032;2023-02-22T04:05:27;80.72;;;53.15;;
56712;SDS011;42589;45.536;9.032;2023-02-22T04:08:28;97.82;;;58.50;;
56712;SDS011;42589;45.536;9.032;2023-02-22T04:11:29;94.15;;;57.03;;
56712;SDS011;42589;45.536;9.032;2023-02-22T04:14:30;94.63;;;60.33;;
56712;SDS011;42589;45.536;9.032;2023-02-22T04:17:31;93.80;;;61.20;;
56712;SDS011;42589;45.536;9.032;2023-02-22T04:20:32;106.93;;;67.00;;
56712;SDS011;42589;45.536;9.032;2023-02-22T04:23:34;119.05;;;72.70;;
56712;SDS011;42589;45.536;9.032;2023-02-22T04:26:38;121.03;;;75.07;;
56712;SDS011;42589;45.536;9.032;2023-02-22T04:29:38;136.10;;;80.75;;
56712;SDS011;42589;45.536;9.032;2023-02-22T04:32:39;133.68;;;83.82;;
56712;SDS011;42589;45.536;9.032;2023-02-22T04:35:40;141.52;;;88.68;;
56712;SDS011;42589;45.536;9.032;2023-02-22T04:38:41;154.23;;;91.35;;
56712;SDS011;42589;45.536;9.032;2023-02-22T04:41:42;158.27;;;95.68;;
56712;SDS011;42589;45.536;9.032;2023-02-22T04:44:43;161.60;;;96.20;;
56712;SDS011;42589;45.536;9.032;2023-02-22T04:47:44;168.73;;;99.20;;
56712;SDS011;42589;45.536;9.032;2023-02-22T04:50:45;166.60;;;99.05;;
56712;SDS011;42589;45.536;9.032;2023-02-22T04:53:46;175.98;;;101.00;;
56712;SDS011;42589;45.536;9.032;2023-02-22T04:56:47;162.63;;;98.90;;
56712;SDS011;42589;45.536;9.032;2023-02-22T04:59:48;172.80;;;100.35;;
56712;SDS011;42589;45.536;9.032;2023-02-22T05:02:50;175.40;;;103.85;;
56712;SDS011;42589;45.536;9.032;2023-02-22T05:05:51;181.15;;;102.60;;
56712;SDS011;42589;45.536;9.032;2023-02-22T05:08:52;188.75;;;105.63;;
56712;SDS011;42589;45.536;9.032;2023-02-22T05:11:52;197.73;;;109.45;;
56712;SDS011;42589;45.536;9.032;2023-02-22T05:14:53;192.73;;;108.88;;
56712;SDS011;42589;45.536;9.032;2023-02-22T05:17:54;192.93;;;112.60;;
56712;SDS011;42589;45.536;9.032;2023-02-22T05:20:56;198.43;;;112.22;;
56712;SDS011;42589;45.536;9.032;2023-02-22T05:23:57;198.38;;;115.90;;
56712;SDS011;42589;45.536;9.032;2023-02-22T05:26:57;202.80;;;115.47;;
56712;SDS011;42589;45.536;9.032;2023-02-22T05:30:01;204.70;;;114.47;;
56712;SDS011;42589;45.536;9.032;2023-02-22T05:33:02;206.52;;;116.28;;
56712;SDS011;42589;45.536;9.032;2023-02-22T05:36:02;204.90;;;115.32;;
56712;SDS011;42589;45.536;9.032;2023-02-22T05:39:03;207.93;;;115.53;;
56712;SDS011;42589;45.536;9.032;2023-02-22T05:42:04;213.07;;;117.63;;
56712;SDS011;42589;45.536;9.032;2023-02-22T05:45:06;212.30;;;118.47;;
56712;SDS011;42589;45.536;9.032;2023-02-22T05:48:07;210.98;;;118.40;;
56712;SDS011;42589;45.536;9.032;2023-02-22T05:51:08;225.48;;;120.88;;
56712;SDS011;42589;45.536;9.032;2023-02-22T05:54:09;217.52;;;116.03;;
56712;SDS011;42589;45.536;9.032;2023-02-22T05:57:10;215.63;;;118.30;;
56712;SDS011;42589;45.536;9.032;2023-02-22T06:00:15;217.13;;;119.13;;
56712;SDS011;42589;45.536;9.032;2023-02-22T06:03:27;226.65;;;120.95;;
56712;SDS011;42589;45.536;9.032;2023-02-22T06:06:28;224.50;;;124.15;;
56712;SDS011;42589;45.536;9.032;2023-02-22T06:09:29;220.68;;;121.85;;
56712;SDS011;42589;45.536;9.032;2023-02-22T06:12:30;222.88;;;122.30;;
56712;SDS011;42589;45.536;9.032;2023-02-22T06:15:31;225.73;;;120.97;;
56712;SDS011;42589;45.536;9.032;2023-02-22T06:18:32;221.07;;;122.47;;
56712;SDS011;42589;45.536;9.032;2023-02-22T06:21:33;221.85;;;121.95;;
56712;SDS011;42589;45.536;9.032;2023-02-22T06:24:36;227.10;;;122.18;;
56712;SDS011;42589;45.536;9.032;2023-02-22T06:27:38;217.68;;;118.45;;
56712;SDS011;42589;45.536;9.032;2023-02-22T06:30:39;220.10;;;120.03;;
56712;SDS011;42589;45.536;9.032;2023-02-22T06:33:41;220.57;;;120.75;;
56712;SDS011;42589;45.536;9.032;2023-02-22T06:36:42;220.77;;;121.38;;
56712;SDS011;42589;45.536;9.032;2023-02-22T06:39:43;227.70;;;123.38;;
56712;SDS011;42589;45.536;9.032;2023-02-22T06:42:45;229.27;;;125.85;;
56712;SDS011;42589;45.536;9.032;2023-02-22T06:45:47;225.50;;;123.80;;
56712;SDS011;42589;45.536;9.032;2023-02-22T06:48:50;231.38;;;124.45;;
56712;SDS011;42589;45.536;9.032;2023-02-22T06:51:52;231.50;;;121.23;;
56712;SDS011;42589;45.536;9.032;2023-02-22T06:54:53;232.63;;;126.15;;
56712;SDS011;42589;45.536;9.032;2023-02-22T06:57:53;225.45;;;122.07;;
56712;SDS011;42589;45.536;9.032;2023-02-22T07:00:54;226.27;;;122.85;;
56712;SDS011;42589;45.536;9.032;2023-02-22T07:03:56;221.80;;;122.20;;
56712;SDS011;42589;45.536;9.032;2023-02-22T07:06:57;234.45;;;126.03;;
56712;SDS011;42589;45.536;9.032;2023-02-22T07:09:58;229.60;;;123.78;;
56712;SDS011;42589;45.536;9.032;2023-02-22T07:12:59;232.95;;;123.25;;
56712;SDS011;42589;45.536;9.032;2023-02-22T07:16:01;228.07;;;122.88;;
56712;SDS011;42589;45.536;9.032;2023-02-22T07:19:02;222.98;;;123.28;;
56712;SDS011;42589;45.536;9.032;2023-02-22T07:22:03;230.52;;;122.25;;
56712;SDS011;42589;45.536;9.032;2023-02-22T07:25:05;229.02;;;122.32;;
56712;SDS011;42589;45.536;9.032;2023-02-22T07:28:09;220.23;;;121.30;;
56712;SDS011;42589;45.536;9.032;2023-02-22T07:31:10;225.57;;;121.85;;
56712;SDS011;42589;45.536;9.032;2023-02-22T07:34:11;229.65;;;122.80;;
56712;SDS011;42589;45.536;9.032;2023-02-22T07:37:13;229.45;;;124.00;;
56712;SDS011;42589;45.536;9.032;2023-02-22T07:40:14;231.95;;;123.15;;
56712;SDS011;42589;45.536;9.032;2023-02-22T07:46:18;228.95;;;122.45;;
56712;SDS011;42589;45.536;9.032;2023-02-22T07:49:19;229.73;;;122.10;;
56712;SDS011;42589;45.536;9.032;2023-02-22T07:52:29;221.35;;;121.18;;
56712;SDS011;42589;45.536;9.032;2023-02-22T07:55:31;228.52;;;122.63;;
56712;SDS011;42589;45.536;9.032;2023-02-22T07:58:33;223.60;;;120.50;;
56712;SDS011;42589;45.536;9.032;2023-02-22T08:01:34;222.40;;;120.10;;
56712;SDS011;42589;45.536;9.032;2023-02-22T08:04:35;222.52;;;117.35;;
56712;SDS011;42589;45.536;9.032;2023-02-22T08:07:38;227.65;;;119.35;;
56712;SDS011;42589;45.536;9.032;2023-02-22T08:10:40;225.70;;;119.88;;
56712;SDS011;42589;45.536;9.032;2023-02-22T08:13:41;221.02;;;118.55;;
56712;SDS011;42589;45.536;9.032;2023-02-22T08:16:42;220.70;;;118.60;;
56712;SDS011;42589;45.536;9.032;2023-02-22T08:19:43;212.23;;;117.25;;
56712;SDS011;42589;45.536;9.032;2023-02-22T08:22:44;226.13;;;120.55;;
56712;SDS011;42589;45.536;9.032;2023-02-22T08:25:46;223.85;;;120.93;;
56712;SDS011;42589;45.536;9.032;2023-02-22T08:28:47;216.80;;;114.30;;
56712;SDS011;42589;45.536;9.032;2023-02-22T08:31:51;224.05;;;119.22;;
56712;SDS011;42589;45.536;9.032;2023-02-22T08:37:56;217.30;;;119.75;;
56712;SDS011;42589;45.536;9.032;2023-02-22T08:40:58;218.90;;;116.78;;
56712;SDS011;42589;45.536;9.032;2023-02-22T08:44:00;220.50;;;116.93;;
56712;SDS011;42589;45.536;9.032;2023-02-22T08:47:01;215.30;;;116.75;;
56712;SDS011;42589;45.536;9.032;2023-02-22T08:50:02;215.38;;;116.15;;
56712;SDS011;42589;45.536;9.032;2023-02-22T08:53:05;218.68;;;117.70;;
56712;SDS011;42589;45.536;9.032;2023-02-22T08:56:06;224.80;;;118.47;;
56712;SDS011;42589;45.536;9.032;2023-02-22T08:59:07;215.32;;;117.07;;
56712;SDS011;42589;45.536;9.032;2023-02-22T09:02:12;211.32;;;114.65;;
56712;SDS011;42589;45.536;9.032;2023-02-22T09:05:20;215.82;;;118.20;;
56712;SDS011;42589;45.536;9.032;2023-02-22T09:08:21;219.10;;;117.75;;
56712;SDS011;42589;45.536;9.032;2023-02-22T09:11:23;214.38;;;118.35;;
56712;SDS011;42589;45.536;9.032;2023-02-22T09:14:24;217.63;;;119.50;;
56712;SDS011;42589;45.536;9.032;2023-02-22T09:17:25;210.23;;;116.45;;
56712;SDS011;42589;45.536;9.032;2023-02-22T09:20:27;225.48;;;120.75;;
56712;SDS011;42589;45.536;9.032;2023-02-22T09:23:28;212.48;;;113.97;;
56712;SDS011;42589;45.536;9.032;2023-02-22T09:26:29;218.05;;;117.40;;
56712;SDS011;42589;45.536;9.032;2023-02-22T09:29:30;209.18;;;115.57;;
56712;SDS011;42589;45.536;9.032;2023-02-22T09:32:31;216.45;;;116.10;;
56712;SDS011;42589;45.536;9.032;2023-02-22T09:35:32;211.40;;;115.60;;
56712;SDS011;42589;45.536;9.032;2023-02-22T09:38:35;213.48;;;115.10;;
56712;SDS011;42589;45.536;9.032;2023-02-22T09:41:38;216.30;;;114.20;;
56712;SDS011;42589;45.536;9.032;2023-02-22T09:44:54;209.35;;;114.60;;
56712;SDS011;42589;45.536;9.032;2023-02-22T09:48:02;215.38;;;116.65;;
56712;SDS011;42589;45.536;9.032;2023-02-22T09:51:07;221.00;;;116.68;;
56712;SDS011;42589;45.536;9.032;2023-02-22T09:54:20;210.40;;;115.97;;
56712;SDS011;42589;45.536;9.032;2023-02-22T09:57:27;204.57;;;113.22;;
56712;SDS011;42589;45.536;9.032;2023-02-22T10:00:35;213.60;;;114.28;;
56712;SDS011;42589;45.536;9.032;2023-02-22T10:04:23;205.63;;;112.70;;
56712;SDS011;42589;45.536;9.032;2023-02-22T10:10:16;211.65;;;114.70;;
56712;SDS011;42589;45.536;9.032;2023-02-22T10:26:24;207.65;;;111.82;;
56712;SDS011;42589;45.536;9.032;2023-02-22T10:32:30;203.23;;;113.03;;
56712;SDS011;42589;45.536;9.032;2023-02-22T10:35:36;200.45;;;111.35;;
56712;SDS011;42589;45.536;9.032;2023-02-22T10:38:40;197.65;;;110.75;;
56712;SDS011;42589;45.536;9.032;2023-02-22T10:41:51;193.60;;;109.32;;
56712;SDS011;42589;45.536;9.032;2023-02-22T10:44:56;194.32;;;108.53;;
56712;SDS011;42589;45.536;9.032;2023-02-22T10:47:58;187.50;;;107.10;;
56712;SDS011;42589;45.536;9.032;2023-02-22T10:51:06;190.98;;;106.40;;
56712;SDS011;42589;45.536;9.032;2023-02-22T10:57:16;203.65;;;110.05;;
56712;SDS011;42589;45.536;9.032;2023-02-22T11:00:28;190.90;;;108.15;;
56712;SDS011;42589;45.536;9.032;2023-02-22T11:03:30;190.35;;;104.97;;
56712;SDS011;42589;45.536;9.032;2023-02-22T11:06:32;185.27;;;103.45;;
56712;SDS011;42589;45.536;9.032;2023-02-22T11:09:50;186.15;;;106.53;;
56712;SDS011;42589;45.536;9.032;2023-02-22T11:12:53;193.23;;;108.32;;
56712;SDS011;42589;45.536;9.032;2023-02-22T11:16:16;189.43;;;107.65;;
56712;SDS011;42589;45.536;9.032;2023-02-22T11:19:26;185.07;;;105.65;;
56712;SDS011;42589;45.536;9.032;2023-02-22T11:22:36;183.85;;;104.55;;
56712;SDS011;42589;45.536;9.032;2023-02-22T11:25:41;186.00;;;105.10;;
56712;SDS011;42589;45.536;9.032;2023-02-22T11:28:43;187.63;;;104.55;;
56712;SDS011;42589;45.536;9.032;2023-02-22T11:31:48;172.27;;;99.72;;
56712;SDS011;42589;45.536;9.032;2023-02-22T11:34:50;164.15;;;94.15;;
56712;SDS011;42589;45.536;9.032;2023-02-22T11:37:52;157.95;;;93.32;;
56712;SDS011;42589;45.536;9.032;2023-02-22T11:41:06;162.20;;;89.97;;
56712;SDS011;42589;45.536;9.032;2023-02-22T11:44:20;154.98;;;91.18;;
56712;SDS011;42589;45.536;9.032;2023-02-22T11:47:25;165.82;;;92.28;;
56712;SDS011;42589;45.536;9.032;2023-02-22T11:54:07;149.63;;;86.75;;
56712;SDS011;42589;45.536;9.032;2023-02-22T12:00:41;117.78;;;67.43;;
56712;SDS011;42589;45.536;9.032;2023-02-22T12:07:16;116.22;;;66.25;;
56712;SDS011;42589;45.536;9.032;2023-02-22T12:10:38;97.22;;;57.30;;
56712;SDS011;42589;45.536;9.032;2023-02-22T12:20:26;119.97;;;69.45;;
56712;SDS011;42589;45.536;9.032;2023-02-22T12:23:46;135.20;;;81.05;;
56712;SDS011;42589;45.536;9.032;2023-02-22T12:26:58;143.45;;;81.10;;
56712;SDS011;42589;45.536;9.032;2023-02-22T12:33:34;138.45;;;79.97;;
56712;SDS011;42589;45.536;9.032;2023-02-22T12:36:47;138.98;;;81.20;;
56712;SDS011;42589;45.536;9.032;2023-02-22T12:40:13;135.85;;;79.25;;
56712;SDS011;42589;45.536;9.032;2023-02-22T12:43:27;156.85;;;88.18;;
56712;SDS011;42589;45.536;9.032;2023-02-22T12:46:33;163.43;;;95.00;;
56712;SDS011;42589;45.536;9.032;2023-02-22T12:49:43;157.75;;;89.57;;
56712;SDS011;42589;45.536;9.032;2023-02-22T12:55:59;160.75;;;90.53;;
56712;SDS011;42589;45.536;9.032;2023-02-22T12:59:34;159.43;;;89.47;;
56712;SDS011;42589;45.536;9.032;2023-02-22T13:02:44;155.07;;;87.22;;
56712;SDS011;42589;45.536;9.032;2023-02-22T13:15:53;113.50;;;66.13;;
56712;SDS011;42589;45.536;9.032;2023-02-22T13:19:00;126.03;;;71.50;;
56712;SDS011;42589;45.536;9.032;2023-02-22T13:22:12;116.45;;;65.45;;
56712;SDS011;42589;45.536;9.032;2023-02-22T13:25:26;117.65;;;67.00;;
56712;SDS011;42589;45.536;9.032;2023-02-22T13:28:40;126.80;;;73.38;;
56712;SDS011;42589;45.536;9.032;2023-02-22T13:52:33;104.45;;;63.38;;
56712;SDS011;42589;45.536;9.032;2023-02-22T13:55:40;106.60;;;63.92;;
56712;SDS011;42589;45.536;9.032;2023-02-22T13:58:59;99.85;;;60.30;;
56712;SDS011;42589;45.536;9.032;2023-02-22T14:02:03;103.82;;;61.42;;
56712;SDS011;42589;45.536;9.032;2023-02-22T14:08:44;95.60;;;57.15;;
56712;SDS011;42589;45.536;9.032;2023-02-22T14:11:45;100.40;;;58.92;;
56712;SDS011;42589;45.536;9.032;2023-02-22T14:18:15;106.53;;;62.78;;
56712;SDS011;42589;45.536;9.032;2023-02-22T14:21:17;103.28;;;61.47;;
56712;SDS011;42589;45.536;9.032;2023-02-22T14:24:20;104.25;;;59.55;;
56712;SDS011;42589;45.536;9.032;2023-02-22T14:27:21;103.18;;;59.60;;
56712;SDS011;42589;45.536;9.032;2023-02-22T14:30:23;102.25;;;60.08;;
56712;SDS011;42589;45.536;9.032;2023-02-22T14:37:05;105.60;;;61.83;;
56712;SDS011;42589;45.536;9.032;2023-02-22T14:40:18;108.00;;;62.03;;
56712;SDS011;42589;45.536;9.032;2023-02-22T14:43:24;97.78;;;58.88;;
56712;SDS011;42589;45.536;9.032;2023-02-22T14:46:26;102.18;;;59.05;;
56712;SDS011;42589;45.536;9.032;2023-02-22T14:49:31;95.38;;;58.65;;
56712;SDS011;42589;45.536;9.032;2023-02-22T14:52:36;97.47;;;58.95;;
56712;SDS011;42589;45.536;9.032;2023-02-22T14:55:40;96.45;;;58.65;;
56712;SDS011;42589;45.536;9.032;2023-02-22T14:58:48;102.82;;;60.83;;
56712;SDS011;42589;45.536;9.032;2023-02-22T15:02:06;94.20;;;56.85;;
56712;SDS011;42589;45.536;9.032;2023-02-22T15:05:13;96.43;;;57.50;;
56712;SDS011;42589;45.536;9.032;2023-02-22T15:08:16;103.70;;;60.50;;
56712;SDS011;42589;45.536;9.032;2023-02-22T15:11:19;104.55;;;60.90;;
56712;SDS011;42589;45.536;9.032;2023-02-22T15:14:31;102.03;;;60.75;;
56712;SDS011;42589;45.536;9.032;2023-02-22T15:17:36;99.47;;;57.88;;
56712;SDS011;42589;45.536;9.032;2023-02-22T15:20:37;92.10;;;57.25;;
56712;SDS011;42589;45.536;9.032;2023-02-22T15:23:42;91.28;;;55.47;;
56712;SDS011;42589;45.536;9.032;2023-02-22T15:26:44;91.30;;;54.50;;
56712;SDS011;42589;45.536;9.032;2023-02-22T15:29:46;87.20;;;51.88;;
56712;SDS011;42589;45.536;9.032;2023-02-22T15:32:46;89.55;;;54.72;;
56712;SDS011;42589;45.536;9.032;2023-02-22T15:35:51;83.38;;;51.60;;
56712;SDS011;42589;45.536;9.032;2023-02-22T15:38:54;82.50;;;49.20;;
56712;SDS011;42589;45.536;9.032;2023-02-22T15:45:06;76.80;;;48.22;;
56712;SDS011;42589;45.536;9.032;2023-02-22T15:48:08;76.05;;;48.53;;
56712;SDS011;42589;45.536;9.032;2023-02-22T15:51:11;76.55;;;45.45;;
56712;SDS011;42589;45.536;9.032;2023-02-22T15:54:14;69.78;;;45.30;;
56712;SDS011;42589;45.536;9.032;2023-02-22T15:57:19;79.57;;;46.40;;
56712;SDS011;42589;45.536;9.032;2023-02-22T16:00:26;72.63;;;43.35;;
56712;SDS011;42589;45.536;9.032;2023-02-22T16:03:41;68.75;;;43.38;;
56712;SDS011;42589;45.536;9.032;2023-02-22T16:06:46;64.97;;;41.50;;
56712;SDS011;42589;45.536;9.032;2023-02-22T16:09:47;67.93;;;42.30;;
56712;SDS011;42589;45.536;9.032;2023-02-22T16:13:03;68.75;;;41.70;;
56712;SDS011;42589;45.536;9.032;2023-02-22T16:16:21;65.03;;;40.25;;
56712;SDS011;42589;45.536;9.032;2023-02-22T16:19:34;67.10;;;41.65;;
56712;SDS011;42589;45.536;9.032;2023-02-22T16:22:37;63.90;;;40.83;;
56712;SDS011;42589;45.536;9.032;2023-02-22T16:25:40;65.15;;;41.40;;
56712;SDS011;42589;45.536;9.032;2023-02-22T16:28:45;74.75;;;42.10;;
56712;SDS011;42589;45.536;9.032;2023-02-22T16:31:51;69.80;;;43.25;;
56712;SDS011;42589;45.536;9.032;2023-02-22T16:34:52;74.97;;;44.53;;
56712;SDS011;42589;45.536;9.032;2023-02-22T16:38:01;68.47;;;44.05;;
56712;SDS011;42589;45.536;9.032;2023-02-22T16:41:16;71.43;;;43.08;;
56712;SDS011;42589;45.536;9.032;2023-02-22T16:44:18;70.10;;;43.78;;
56712;SDS011;42589;45.536;9.032;2023-02-22T16:47:19;66.13;;;42.80;;
56712;SDS011;42589;45.536;9.032;2023-02-22T16:50:20;70.03;;;43.08;;
56712;SDS011;42589;45.536;9.032;2023-02-22T16:53:23;68.15;;;42.40;;
56712;SDS011;42589;45.536;9.032;2023-02-22T16:56:26;69.88;;;42.45;;
56712;SDS011;42589;45.536;9.032;2023-02-22T16:59:34;70.25;;;41.75;;
56712;SDS011;42589;45.536;9.032;2023-02-22T17:02:38;73.47;;;42.72;;
56712;SDS011;42589;45.536;9.032;2023-02-22T17:05:38;67.95;;;42.17;;
56712;SDS011;42589;45.536;9.032;2023-02-22T17:08:39;69.03;;;43.15;;
56712;SDS011;42589;45.536;9.032;2023-02-22T17:11:41;63.95;;;40.85;;
56712;SDS011;42589;45.536;9.032;2023-02-22T17:14:44;64.82;;;42.20;;
56712;SDS011;42589;45.536;9.032;2023-02-22T17:17:45;70.97;;;42.72;;
56712;SDS011;42589;45.536;9.032;2023-02-22T17:20:48;68.32;;;41.88;;
56712;SDS011;42589;45.536;9.032;2023-02-22T17:23:49;68.43;;;41.90;;
56712;SDS011;42589;45.536;9.032;2023-02-22T17:26:50;66.95;;;43.15;;
56712;SDS011;42589;45.536;9.032;2023-02-22T17:29:53;69.75;;;41.95;;
56712;SDS011;42589;45.536;9.032;2023-02-22T17:32:54;71.05;;;41.22;;
56712;SDS011;42589;45.536;9.032;2023-02-22T17:36:02;70.30;;;42.33;;
56712;SDS011;42589;45.536;9.032;2023-02-22T17:39:04;71.45;;;43.17;;
56712;SDS011;42589;45.536;9.032;2023-02-22T17:42:05;66.00;;;40.58;;
56712;SDS011;42589;45.536;9.032;2023-02-22T17:45:06;70.47;;;40.85;;
56712;SDS011;42589;45.536;9.032;2023-02-22T17:48:07;68.53;;;42.25;;
56712;SDS011;42589;45.536;9.032;2023-02-22T17:51:09;61.60;;;41.05;;
56712;SDS011;42589;45.536;9.032;2023-02-22T17:54:11;75.18;;;42.63;;
56712;SDS011;42589;45.536;9.032;2023-02-22T17:57:12;69.05;;;42.35;;
56712;SDS011;42589;45.536;9.032;2023-02-22T18:00:14;70.47;;;42.03;;
56712;SDS011;42589;45.536;9.032;2023-02-22T18:03:22;76.72;;;44.63;;
56712;SDS011;42589;45.536;9.032;2023-02-22T18:06:24;65.00;;;41.75;;
56712;SDS011;42589;45.536;9.032;2023-02-22T18:09:27;64.10;;;41.45;;
56712;SDS011;42589;45.536;9.032;2023-02-22T18:12:28;66.00;;;41.20;;
56712;SDS011;42589;45.536;9.032;2023-02-22T18:15:29;71.50;;;42.60;;
56712;SDS011;42589;45.536;9.032;2023-02-22T18:18:34;72.30;;;43.88;;
56712;SDS011;42589;45.536;9.032;2023-02-22T18:21:36;72.45;;;43.38;;
56712;SDS011;42589;45.536;9.032;2023-02-22T18:24:36;65.88;;;41.08;;
56712;SDS011;42589;45.536;9.032;2023-02-22T18:27:39;69.07;;;42.47;;
56712;SDS011;42589;45.536;9.032;2023-02-22T18:30:42;69.65;;;43.25;;
56712;SDS011;42589;45.536;9.032;2023-02-22T18:33:44;71.00;;;44.05;;
56712;SDS011;42589;45.536;9.032;2023-02-22T18:36:48;67.82;;;44.13;;
56712;SDS011;42589;45.536;9.032;2023-02-22T18:39:53;70.00;;;45.00;;
56712;SDS011;42589;45.536;9.032;2023-02-22T18:42:54;72.03;;;45.42;;
56712;SDS011;42589;45.536;9.032;2023-02-22T18:46:03;72.82;;;44.20;;
56712;SDS011;42589;45.536;9.032;2023-02-22T18:49:08;72.97;;;44.88;;
56712;SDS011;42589;45.536;9.032;2023-02-22T18:52:10;69.60;;;44.65;;
56712;SDS011;42589;45.536;9.032;2023-02-22T18:55:15;69.68;;;44.38;;
56712;SDS011;42589;45.536;9.032;2023-02-22T18:58:20;73.80;;;45.72;;
56712;SDS011;42589;45.536;9.032;2023-02-22T19:01:21;68.70;;;45.75;;
56712;SDS011;42589;45.536;9.032;2023-02-22T19:04:22;77.13;;;46.78;;
56712;SDS011;42589;45.536;9.032;2023-02-22T19:07:24;73.60;;;44.63;;
56712;SDS011;42589;45.536;9.032;2023-02-22T19:10:25;70.65;;;44.80;;
56712;SDS011;42589;45.536;9.032;2023-02-22T19:13:26;76.18;;;46.03;;
56712;SDS011;42589;45.536;9.032;2023-02-22T19:16:27;74.05;;;44.72;;
56712;SDS011;42589;45.536;9.032;2023-02-22T19:19:29;74.38;;;46.20;;
56712;SDS011;42589;45.536;9.032;2023-02-22T19:22:30;72.15;;;45.25;;
56712;SDS011;42589;45.536;9.032;2023-02-22T19:25:36;75.43;;;46.15;;
56712;SDS011;42589;45.536;9.032;2023-02-22T19:28:40;74.22;;;46.10;;
56712;SDS011;42589;45.536;9.032;2023-02-22T19:31:41;74.93;;;46.78;;
56712;SDS011;42589;45.536;9.032;2023-02-22T19:34:42;70.90;;;46.00;;
56712;SDS011;42589;45.536;9.032;2023-02-22T19:37:43;75.22;;;45.13;;
56712;SDS011;42589;45.536;9.032;2023-02-22T19:40:45;75.88;;;46.78;;
56712;SDS011;42589;45.536;9.032;2023-02-22T19:43:48;75.05;;;47.05;;
56712;SDS011;42589;45.536;9.032;2023-02-22T19:46:50;67.03;;;44.92;;
56712;SDS011;42589;45.536;9.032;2023-02-22T19:49:51;79.95;;;47.58;;
56712;SDS011;42589;45.536;9.032;2023-02-22T19:52:52;74.15;;;47.38;;
56712;SDS011;42589;45.536;9.032;2023-02-22T19:55:53;76.55;;;46.30;;
56712;SDS011;42589;45.536;9.032;2023-02-22T19:58:54;80.50;;;48.80;;
56712;SDS011;42589;45.536;9.032;2023-02-22T20:01:55;80.70;;;49.60;;